sensor_id;sensor_type;location;lat;lon;timestamp;pressure;altitude;pressure_sealevel;temperature;humidity
7966;BME280;4028;43.272;26.932;2024-02-28T00:00:00;99657.19;;;6.05;100.00
7966;BME280;4028;43.272;26.932;2024-02-28T00:02:25;99657.91;;;6.07;100.00
7966;BME280;4028;43.272;26.932;2024-02-28T00:04:51;99666.75;;;6.18;100.00
7966;BME280;4028;43.272;26.932;2024-02-28T00:07:16;99669.84;;;5.98;100.00
7966;BME280;4028;43.272;26.932;2024-02-28T00:09:44;99658.00;;;5.78;100.00
7966;BME280;4028;43.272;26.932;2024-02-28T00:12:09;99664.97;;;5.52;100.00
7966;BME280;4028;43.272;26.932;2024-02-28T00:14:35;99663.78;;;5.43;100.00
7966;BME280;4028;43.272;26.932;2024-02-28T00:17:00;99663.63;;;5.32;100.00
7966;BME280;4028;43.272;26.932;2024-02-28T00:19:26;99651.97;;;5.09;100.00
7966;BME280;4028;43.272;26.932;2024-02-28T00:21:51;99663.91;;;4.86;100.00
7966;BME280;4028;43.272;26.932;2024-02-28T00:24:17;99666.22;;;4.91;100.00
7966;BME280;4028;43.272;26.932;2024-02-28T00:26:43;99664.13;;;5.25;100.00
7966;BME280;4028;43.272;26.932;2024-02-28T00:29:09;99647.94;;;5.18;100.00
7966;BME280;4028;43.272;26.932;2024-02-28T00:31:35;99653.78;;;4.94;100.00
7966;BME280;4028;43.272;26.932;2024-02-28T00:34:01;99657.03;;;5.12;100.00
7966;BME280;4028;43.272;26.932;2024-02-28T00:36:26;99652.69;;;5.11;100.00
7966;BME280;4028;43.272;26.932;2024-02-28T00:38:52;99634.56;;;4.94;100.00
7966;BME280;4028;43.272;26.932;2024-02-28T00:41:17;99654.44;;;4.98;100.00
7966;BME280;4028;43.272;26.932;2024-02-28T00:43:43;99651.84;;;5.11;100.00
7966;BME280;4028;43.272;26.932;2024-02-28T00:46:08;99656.81;;;5.15;100.00
7966;BME280;4028;43.272;26.932;2024-02-28T00:48:38;99653.03;;;5.07;100.00
7966;BME280;4028;43.272;26.932;2024-02-28T00:51:04;99647.41;;;4.99;100.00
7966;BME280;4028;43.272;26.932;2024-02-28T00:53:30;99657.88;;;4.99;100.00
7966;BME280;4028;43.272;26.932;2024-02-28T00:55:55;99651.78;;;5.12;100.00
7966;BME280;4028;43.272;26.932;2024-02-28T00:58:21;99660.81;;;5.35;100.00
7966;BME280;4028;43.272;26.932;2024-02-28T01:00:48;99656.72;;;5.58;100.00
7966;BME280;4028;43.272;26.932;2024-02-28T01:03:14;99640.34;;;5.40;100.00
7966;BME280;4028;43.272;26.932;2024-02-28T01:05:41;99644.47;;;5.44;100.00
7966;BME280;4028;43.272;26.932;2024-02-28T01:08:06;99662.75;;;5.46;100.00
7966;BME280;4028;43.272;26.932;2024-02-28T01:10:33;99656.94;;;5.41;100.00
7966;BME280;4028;43.272;26.932;2024-02-28T01:12:59;99652.34;;;5.44;100.00
7966;BME280;4028;43.272;26.932;2024-02-28T01:15:25;99652.09;;;5.62;100.00
7966;BME280;4028;43.272;26.932;2024-02-28T01:17:50;99648.63;;;5.34;100.00
7966;BME280;4028;43.272;26.932;2024-02-28T01:20:16;99650.28;;;5.62;100.00
7966;BME280;4028;43.272;26.932;2024-02-28T01:22:41;99622.88;;;5.27;100.00
7966;BME280;4028;43.272;26.932;2024-02-28T01:25:07;99650.09;;;5.65;100.00
7966;BME280;4028;43.272;26.932;2024-02-28T01:27:32;99652.53;;;5.41;100.00
7966;BME280;4028;43.272;26.932;2024-02-28T01:29:58;99653.31;;;5.56;100.00
7966;BME280;4028;43.272;26.932;2024-02-28T01:32:23;99652.84;;;5.64;100.00
7966;BME280;4028;43.272;26.932;2024-02-28T01:34:49;99648.03;;;5.43;100.00
7966;BME280;4028;43.272;26.932;2024-02-28T01:37:14;99655.81;;;5.45;100.00
7966;BME280;4028;43.272;26.932;2024-02-28T01:39:40;99654.94;;;5.59;100.00
7966;BME280;4028;43.272;26.932;2024-02-28T01:42:05;99656.41;;;5.36;100.00
7966;BME280;4028;43.272;26.932;2024-02-28T01:44:34;99648.41;;;5.10;100.00
7966;BME280;4028;43.272;26.932;2024-02-28T01:47:03;99635.97;;;5.27;100.00
7966;BME280;4028;43.272;26.932;2024-02-28T01:49:29;99642.63;;;5.59;100.00
7966;BME280;4028;43.272;26.932;2024-02-28T01:51:55;99649.28;;;5.38;100.00
7966;BME280;4028;43.272;26.932;2024-02-28T01:54:22;99657.88;;;5.40;100.00
7966;BME280;4028;43.272;26.932;2024-02-28T01:56:47;99657.00;;;5.54;100.00
7966;BME280;4028;43.272;26.932;2024-02-28T01:59:14;99649.75;;;5.57;100.00
7966;BME280;4028;43.272;26.932;2024-02-28T02:01:40;99654.72;;;5.35;100.00
7966;BME280;4028;43.272;26.932;2024-02-28T02:04:06;99653.88;;;4.93;100.00
7966;BME280;4028;43.272;26.932;2024-02-28T02:06:33;99646.47;;;4.85;100.00
7966;BME280;4028;43.272;26.932;2024-02-28T02:09:02;99656.97;;;4.57;100.00
7966;BME280;4028;43.272;26.932;2024-02-28T02:11:28;99635.16;;;4.42;100.00
7966;BME280;4028;43.272;26.932;2024-02-28T02:13:54;99656.97;;;4.85;100.00
7966;BME280;4028;43.272;26.932;2024-02-28T02:16:20;99650.47;;;5.05;100.00
7966;BME280;4028;43.272;26.932;2024-02-28T02:18:51;99657.50;;;5.05;100.00
7966;BME280;4028;43.272;26.932;2024-02-28T02:21:18;99654.78;;;5.06;100.00
7966;BME280;4028;43.272;26.932;2024-02-28T02:23:45;99660.00;;;5.20;100.00
7966;BME280;4028;43.272;26.932;2024-02-28T02:26:11;99632.06;;;4.92;100.00
7966;BME280;4028;43.272;26.932;2024-02-28T02:28:36;99661.56;;;4.82;100.00
7966;BME280;4028;43.272;26.932;2024-02-28T02:31:02;99663.91;;;4.58;100.00
7966;BME280;4028;43.272;26.932;2024-02-28T02:33:27;99670.31;;;4.24;100.00
7966;BME280;4028;43.272;26.932;2024-02-28T02:35:53;99670.31;;;4.24;100.00
7966;BME280;4028;43.272;26.932;2024-02-28T02:38:19;99672.56;;;4.30;100.00
7966;BME280;4028;43.272;26.932;2024-02-28T02:40:48;99672.88;;;4.54;100.00
7966;BME280;4028;43.272;26.932;2024-02-28T02:43:14;99660.25;;;4.46;100.00
7966;BME280;4028;43.272;26.932;2024-02-28T02:45:40;99675.63;;;4.66;100.00
7966;BME280;4028;43.272;26.932;2024-02-28T02:48:05;99675.97;;;4.46;100.00
7966;BME280;4028;43.272;26.932;2024-02-28T02:50:31;99670.63;;;4.33;100.00
7966;BME280;4028;43.272;26.932;2024-02-28T02:52:56;99677.00;;;4.58;100.00
7966;BME280;4028;43.272;26.932;2024-02-28T02:55:22;99674.44;;;4.28;100.00
7966;BME280;4028;43.272;26.932;2024-02-28T02:57:47;99686.88;;;4.10;100.00
7966;BME280;4028;43.272;26.932;2024-02-28T03:00:13;99685.09;;;4.10;100.00
7966;BME280;4028;43.272;26.932;2024-02-28T03:02:38;99688.41;;;3.98;100.00
7966;BME280;4028;43.272;26.932;2024-02-28T03:05:05;99685.00;;;3.82;100.00
7966;BME280;4028;43.272;26.932;2024-02-28T03:07:31;99700.91;;;4.23;100.00
7966;BME280;4028;43.272;26.932;2024-02-28T03:09:57;99697.75;;;4.32;100.00
7966;BME280;4028;43.272;26.932;2024-02-28T03:12:22;99694.34;;;4.16;100.00
7966;BME280;4028;43.272;26.932;2024-02-28T03:14:48;99700.38;;;4.02;100.00
7966;BME280;4028;43.272;26.932;2024-02-28T03:17:14;99697.84;;;4.31;100.00
7966;BME280;4028;43.272;26.932;2024-02-28T03:19:41;99694.72;;;4.10;100.00
7966;BME280;4028;43.272;26.932;2024-02-28T03:22:06;99695.81;;;4.36;100.00
7966;BME280;4028;43.272;26.932;2024-02-28T03:24:32;99696.28;;;4.42;100.00
7966;BME280;4028;43.272;26.932;2024-02-28T03:27:03;99694.94;;;4.21;100.00
7966;BME280;4028;43.272;26.932;2024-02-28T03:29:29;99691.25;;;4.09;100.00
7966;BME280;4028;43.272;26.932;2024-02-28T03:31:55;99700.06;;;4.23;100.00
7966;BME280;4028;43.272;26.932;2024-02-28T03:34:20;99696.94;;;4.46;100.00
7966;BME280;4028;43.272;26.932;2024-02-28T03:36:46;99658.75;;;3.98;100.00
7966;BME280;4028;43.272;26.932;2024-02-28T03:39:12;99702.63;;;4.38;100.00
7966;BME280;4028;43.272;26.932;2024-02-28T03:41:37;99701.94;;;4.21;100.00
7966;BME280;4028;43.272;26.932;2024-02-28T03:44:03;99708.66;;;4.10;100.00
7966;BME280;4028;43.272;26.932;2024-02-28T03:46:29;99713.44;;;4.18;100.00
7966;BME280;4028;43.272;26.932;2024-02-28T03:48:55;99709.25;;;4.15;100.00
7966;BME280;4028;43.272;26.932;2024-02-28T03:51:20;99705.41;;;4.21;100.00
7966;BME280;4028;43.272;26.932;2024-02-28T03:53:46;99711.91;;;4.44;100.00
7966;BME280;4028;43.272;26.932;2024-02-28T03:56:11;99711.69;;;4.33;100.00
7966;BME280;4028;43.272;26.932;2024-02-28T03:58:37;99715.19;;;4.48;100.00
7966;BME280;4028;43.272;26.932;2024-02-28T04:01:02;99672.97;;;4.38;100.00
7966;BME280;4028;43.272;26.932;2024-02-28T04:03:28;99713.97;;;4.53;100.00
7966;BME280;4028;43.272;26.932;2024-02-28T04:05:54;99711.44;;;4.07;100.00
7966;BME280;4028;43.272;26.932;2024-02-28T04:08:20;99709.97;;;4.17;100.00
7966;BME280;4028;43.272;26.932;2024-02-28T04:10:45;99710.78;;;4.48;100.00
7966;BME280;4028;43.272;26.932;2024-02-28T04:13:11;99713.03;;;4.54;100.00
7966;BME280;4028;43.272;26.932;2024-02-28T04:15:36;99713.72;;;4.72;100.00
7966;BME280;4028;43.272;26.932;2024-02-28T04:18:03;99714.66;;;4.57;100.00
7966;BME280;4028;43.272;26.932;2024-02-28T04:20:29;99720.63;;;4.59;100.00
7966;BME280;4028;43.272;26.932;2024-02-28T04:22:54;99705.81;;;4.43;100.00
7966;BME280;4028;43.272;26.932;2024-02-28T04:25:20;99728.78;;;4.10;100.00
7966;BME280;4028;43.272;26.932;2024-02-28T04:27:45;99731.28;;;3.81;100.00
7966;BME280;4028;43.272;26.932;2024-02-28T04:30:12;99726.06;;;3.65;100.00
7966;BME280;4028;43.272;26.932;2024-02-28T04:32:38;99721.34;;;3.56;100.00
7966;BME280;4028;43.272;26.932;2024-02-28T04:35:03;99723.94;;;3.56;100.00
7966;BME280;4028;43.272;26.932;2024-02-28T04:37:29;99684.56;;;3.44;100.00
7966;BME280;4028;43.272;26.932;2024-02-28T04:39:54;99726.59;;;4.02;100.00
7966;BME280;4028;43.272;26.932;2024-02-28T04:42:20;99720.91;;;3.80;100.00
7966;BME280;4028;43.272;26.932;2024-02-28T04:44:45;99723.91;;;3.88;100.00
7966;BME280;4028;43.272;26.932;2024-02-28T04:47:11;99731.59;;;3.91;100.00
7966;BME280;4028;43.272;26.932;2024-02-28T04:49:37;99714.50;;;3.70;100.00
7966;BME280;4028;43.272;26.932;2024-02-28T04:52:04;99733.47;;;3.73;100.00
7966;BME280;4028;43.272;26.932;2024-02-28T04:54:30;99728.94;;;3.61;100.00
7966;BME280;4028;43.272;26.932;2024-02-28T04:56:55;99731.78;;;3.72;100.00
7966;BME280;4028;43.272;26.932;2024-02-28T04:59:21;99735.19;;;3.58;100.00
7966;BME280;4028;43.272;26.932;2024-02-28T05:01:46;99746.75;;;3.54;100.00
7966;BME280;4028;43.272;26.932;2024-02-28T05:04:12;99730.88;;;3.57;100.00
7966;BME280;4028;43.272;26.932;2024-02-28T05:06:37;99746.47;;;3.90;100.00
7966;BME280;4028;43.272;26.932;2024-02-28T05:09:03;99744.28;;;3.67;100.00
7966;BME280;4028;43.272;26.932;2024-02-28T05:11:28;99747.50;;;3.56;100.00
7966;BME280;4028;43.272;26.932;2024-02-28T05:13:54;99744.03;;;3.72;100.00
7966;BME280;4028;43.272;26.932;2024-02-28T05:16:20;99753.34;;;4.07;100.00
7966;BME280;4028;43.272;26.932;2024-02-28T05:18:45;99757.44;;;4.27;100.00
7966;BME280;4028;43.272;26.932;2024-02-28T05:21:11;99738.00;;;4.31;100.00
7966;BME280;4028;43.272;26.932;2024-02-28T05:23:37;99755.00;;;4.24;100.00
7966;BME280;4028;43.272;26.932;2024-02-28T05:26:03;99759.03;;;4.30;100.00
7966;BME280;4028;43.272;26.932;2024-02-28T05:28:34;99757.28;;;4.44;100.00
7966;BME280;4028;43.272;26.932;2024-02-28T05:31:25;99760.09;;;4.41;100.00
7966;BME280;4028;43.272;26.932;2024-02-28T05:33:52;99757.88;;;4.20;100.00
7966;BME280;4028;43.272;26.932;2024-02-28T05:36:18;99760.72;;;4.01;100.00
7966;BME280;4028;43.272;26.932;2024-02-28T05:38:44;99765.53;;;3.92;100.00
7966;BME280;4028;43.272;26.932;2024-02-28T05:41:09;99761.97;;;3.94;100.00
7966;BME280;4028;43.272;26.932;2024-02-28T05:43:37;99765.53;;;3.92;100.00
7966;BME280;4028;43.272;26.932;2024-02-28T05:46:03;99761.47;;;4.03;100.00
7966;BME280;4028;43.272;26.932;2024-02-28T05:48:28;99765.44;;;3.94;100.00
7966;BME280;4028;43.272;26.932;2024-02-28T05:50:54;99739.56;;;3.74;100.00
7966;BME280;4028;43.272;26.932;2024-02-28T05:53:19;99767.19;;;4.09;100.00
7966;BME280;4028;43.272;26.932;2024-02-28T05:55:46;99772.81;;;4.33;100.00
7966;BME280;4028;43.272;26.932;2024-02-28T05:58:11;99775.88;;;4.26;100.00
7966;BME280;4028;43.272;26.932;2024-02-28T06:00:36;99769.66;;;4.42;100.00
7966;BME280;4028;43.272;26.932;2024-02-28T06:03:02;99779.84;;;4.77;100.00
7966;BME280;4028;43.272;26.932;2024-02-28T06:05:28;99779.00;;;5.05;100.00
7966;BME280;4028;43.272;26.932;2024-02-28T06:07:54;99777.78;;;5.25;100.00
7966;BME280;4028;43.272;26.932;2024-02-28T06:10:19;99772.81;;;5.06;100.00
7966;BME280;4028;43.272;26.932;2024-02-28T06:12:46;99779.28;;;5.01;100.00
7966;BME280;4028;43.272;26.932;2024-02-28T06:15:11;99782.94;;;5.27;100.00
7966;BME280;4028;43.272;26.932;2024-02-28T06:17:37;99780.97;;;5.44;100.00
7966;BME280;4028;43.272;26.932;2024-02-28T06:20:03;99777.38;;;5.60;100.00
7966;BME280;4028;43.272;26.932;2024-02-28T06:22:28;99784.59;;;5.56;100.00
7966;BME280;4028;43.272;26.932;2024-02-28T06:24:54;99778.72;;;5.38;100.00
7966;BME280;4028;43.272;26.932;2024-02-28T06:27:19;99785.38;;;5.15;100.00
7966;BME280;4028;43.272;26.932;2024-02-28T06:29:45;99793.31;;;5.42;100.00
7966;BME280;4028;43.272;26.932;2024-02-28T06:32:11;99798.72;;;5.68;100.00
7966;BME280;4028;43.272;26.932;2024-02-28T06:34:36;99796.41;;;5.63;100.00
7966;BME280;4028;43.272;26.932;2024-02-28T06:37:02;99800.50;;;5.67;100.00
7966;BME280;4028;43.272;26.932;2024-02-28T06:39:27;99804.31;;;5.90;100.00
7966;BME280;4028;43.272;26.932;2024-02-28T06:41:53;99798.97;;;5.92;100.00
7966;BME280;4028;43.272;26.932;2024-02-28T06:44:19;99807.78;;;5.91;100.00
7966;BME280;4028;43.272;26.932;2024-02-28T06:46:44;99809.66;;;5.89;100.00
7966;BME280;4028;43.272;26.932;2024-02-28T06:49:10;99810.47;;;6.04;100.00
7966;BME280;4028;43.272;26.932;2024-02-28T06:51:35;99810.88;;;5.83;100.00
7966;BME280;4028;43.272;26.932;2024-02-28T06:54:01;99795.63;;;6.17;100.00
7966;BME280;4028;43.272;26.932;2024-02-28T06:56:27;99803.16;;;6.36;100.00
7966;BME280;4028;43.272;26.932;2024-02-28T06:58:52;99805.00;;;6.73;100.00
7966;BME280;4028;43.272;26.932;2024-02-28T07:01:18;99808.81;;;7.33;100.00
7966;BME280;4028;43.272;26.932;2024-02-28T07:03:44;99806.22;;;7.70;100.00
7966;BME280;4028;43.272;26.932;2024-02-28T07:06:10;99798.31;;;7.57;100.00
7966;BME280;4028;43.272;26.932;2024-02-28T07:08:36;99800.81;;;7.22;100.00
7966;BME280;4028;43.272;26.932;2024-02-28T07:11:02;99792.91;;;7.09;100.00
7966;BME280;4028;43.272;26.932;2024-02-28T07:13:28;99787.41;;;7.25;100.00
7966;BME280;4028;43.272;26.932;2024-02-28T07:15:54;99797.84;;;7.76;100.00
7966;BME280;4028;43.272;26.932;2024-02-28T07:18:20;99808.19;;;8.03;100.00
7966;BME280;4028;43.272;26.932;2024-02-28T07:20:46;99796.34;;;8.32;100.00
7966;BME280;4028;43.272;26.932;2024-02-28T07:23:11;99788.34;;;8.69;100.00
7966;BME280;4028;43.272;26.932;2024-02-28T07:25:37;99800.63;;;9.94;100.00
7966;BME280;4028;43.272;26.932;2024-02-28T07:28:03;99803.25;;;10.05;100.00
7966;BME280;4028;43.272;26.932;2024-02-28T07:30:28;99808.66;;;10.03;100.00
7966;BME280;4028;43.272;26.932;2024-02-28T07:32:54;99794.31;;;10.17;100.00
7966;BME280;4028;43.272;26.932;2024-02-28T07:35:20;99801.44;;;10.70;100.00
7966;BME280;4028;43.272;26.932;2024-02-28T07:37:46;99787.97;;;11.64;100.00
7966;BME280;4028;43.272;26.932;2024-02-28T07:40:12;99793.28;;;12.63;100.00
7966;BME280;4028;43.272;26.932;2024-02-28T07:42:38;99788.63;;;12.94;100.00
7966;BME280;4028;43.272;26.932;2024-02-28T07:45:03;99787.56;;;12.48;100.00
7966;BME280;4028;43.272;26.932;2024-02-28T07:47:29;99775.78;;;11.42;100.00
7966;BME280;4028;43.272;26.932;2024-02-28T07:49:55;99780.03;;;12.14;100.00
7966;BME280;4028;43.272;26.932;2024-02-28T07:52:20;99782.09;;;12.69;100.00
7966;BME280;4028;43.272;26.932;2024-02-28T07:54:46;99785.28;;;12.82;100.00
7966;BME280;4028;43.272;26.932;2024-02-28T07:57:12;99785.09;;;13.50;100.00
7966;BME280;4028;43.272;26.932;2024-02-28T07:59:41;99792.13;;;13.96;100.00
7966;BME280;4028;43.272;26.932;2024-02-28T08:02:07;99779.72;;;14.50;100.00
7966;BME280;4028;43.272;26.932;2024-02-28T08:04:33;99784.66;;;13.27;100.00
7966;BME280;4028;43.272;26.932;2024-02-28T08:06:59;99791.75;;;11.71;100.00
7966;BME280;4028;43.272;26.932;2024-02-28T08:09:25;99792.53;;;10.91;100.00
7966;BME280;4028;43.272;26.932;2024-02-28T08:11:50;99792.81;;;11.19;100.00
7966;BME280;4028;43.272;26.932;2024-02-28T08:14:16;99783.78;;;12.60;100.00
7966;BME280;4028;43.272;26.932;2024-02-28T08:16:41;99783.44;;;14.40;100.00
7966;BME280;4028;43.272;26.932;2024-02-28T08:19:07;99776.03;;;15.55;96.56
7966;BME280;4028;43.272;26.932;2024-02-28T08:21:32;99786.72;;;15.90;82.47
7966;BME280;4028;43.272;26.932;2024-02-28T08:23:58;99788.50;;;14.87;97.23
7966;BME280;4028;43.272;26.932;2024-02-28T08:26:24;99792.00;;;15.73;87.54
7966;BME280;4028;43.272;26.932;2024-02-28T08:28:49;99759.22;;;15.55;83.45
7966;BME280;4028;43.272;26.932;2024-02-28T08:31:15;99778.75;;;16.06;79.21
7966;BME280;4028;43.272;26.932;2024-02-28T08:33:41;99751.06;;;15.56;84.87
7966;BME280;4028;43.272;26.932;2024-02-28T08:36:07;99786.88;;;15.88;78.28
7966;BME280;4028;43.272;26.932;2024-02-28T08:38:32;99781.19;;;15.83;79.89
7966;BME280;4028;43.272;26.932;2024-02-28T08:40:58;99781.13;;;16.42;77.04
7966;BME280;4028;43.272;26.932;2024-02-28T08:43:23;99781.59;;;17.27;68.81
7966;BME280;4028;43.272;26.932;2024-02-28T08:45:49;99786.34;;;17.95;64.14
7966;BME280;4028;43.272;26.932;2024-02-28T08:48:16;99790.25;;;18.15;62.12
7966;BME280;4028;43.272;26.932;2024-02-28T08:50:42;99786.81;;;17.12;65.19
7966;BME280;4028;43.272;26.932;2024-02-28T08:53:07;99789.03;;;16.76;71.30
7966;BME280;4028;43.272;26.932;2024-02-28T08:55:33;99793.94;;;16.14;69.67
7966;BME280;4028;43.272;26.932;2024-02-28T08:57:58;99785.00;;;16.88;68.48
7966;BME280;4028;43.272;26.932;2024-02-28T09:00:24;99783.91;;;17.30;65.15
7966;BME280;4028;43.272;26.932;2024-02-28T09:05:15;99790.25;;;17.29;64.44
7966;BME280;4028;43.272;26.932;2024-02-28T09:07:41;99795.50;;;16.98;67.34
7966;BME280;4028;43.272;26.932;2024-02-28T09:10:07;99794.81;;;16.63;71.08
7966;BME280;4028;43.272;26.932;2024-02-28T09:12:32;99789.66;;;16.29;73.48
7966;BME280;4028;43.272;26.932;2024-02-28T09:14:58;99783.25;;;15.97;76.75
7966;BME280;4028;43.272;26.932;2024-02-28T09:17:24;99793.19;;;16.86;70.88
7966;BME280;4028;43.272;26.932;2024-02-28T09:19:50;99787.63;;;16.47;71.63
7966;BME280;4028;43.272;26.932;2024-02-28T09:22:16;99791.50;;;17.10;73.19
7966;BME280;4028;43.272;26.932;2024-02-28T09:24:43;99787.53;;;18.69;62.73
7966;BME280;4028;43.272;26.932;2024-02-28T09:27:08;99785.16;;;18.75;59.31
7966;BME280;4028;43.272;26.932;2024-02-28T09:29:34;99781.09;;;17.79;61.85
7966;BME280;4028;43.272;26.932;2024-02-28T09:31:59;99786.63;;;19.30;56.87
7966;BME280;4028;43.272;26.932;2024-02-28T09:34:25;99785.88;;;19.80;54.80
7966;BME280;4028;43.272;26.932;2024-02-28T09:36:50;99784.63;;;19.61;54.56
7966;BME280;4028;43.272;26.932;2024-02-28T09:39:16;99792.38;;;19.71;55.72
7966;BME280;4028;43.272;26.932;2024-02-28T09:41:42;99785.47;;;19.98;53.87
7966;BME280;4028;43.272;26.932;2024-02-28T09:44:08;99769.53;;;20.54;52.28
7966;BME280;4028;43.272;26.932;2024-02-28T09:46:34;99761.59;;;21.58;49.65
7966;BME280;4028;43.272;26.932;2024-02-28T09:49:03;99769.63;;;21.23;49.95
7966;BME280;4028;43.272;26.932;2024-02-28T09:51:33;99775.34;;;21.07;49.30
7966;BME280;4028;43.272;26.932;2024-02-28T09:54:03;99769.94;;;21.07;49.12
7966;BME280;4028;43.272;26.932;2024-02-28T09:56:29;99778.81;;;19.94;52.32
7966;BME280;4028;43.272;26.932;2024-02-28T09:58:55;99764.25;;;20.67;50.27
7966;BME280;4028;43.272;26.932;2024-02-28T10:01:25;99765.69;;;19.69;54.05
7966;BME280;4028;43.272;26.932;2024-02-28T10:03:52;99763.63;;;20.44;51.87
7966;BME280;4028;43.272;26.932;2024-02-28T10:06:22;99760.59;;;21.03;50.91
7966;BME280;4028;43.272;26.932;2024-02-28T10:08:48;99764.63;;;20.58;50.94
7966;BME280;4028;43.272;26.932;2024-02-28T10:11:23;99753.84;;;21.42;48.40
7966;BME280;4028;43.272;26.932;2024-02-28T10:13:49;99755.56;;;20.93;48.70
7966;BME280;4028;43.272;26.932;2024-02-28T10:16:15;99756.06;;;19.75;51.91
7966;BME280;4028;43.272;26.932;2024-02-28T10:18:44;99753.78;;;20.30;50.75
7966;BME280;4028;43.272;26.932;2024-02-28T10:21:11;99748.97;;;20.25;51.58
7966;BME280;4028;43.272;26.932;2024-02-28T10:23:43;99756.88;;;20.48;50.94
7966;BME280;4028;43.272;26.932;2024-02-28T10:26:10;99746.47;;;20.02;50.55
7966;BME280;4028;43.272;26.932;2024-02-28T10:28:39;99740.94;;;21.02;50.23
7966;BME280;4028;43.272;26.932;2024-02-28T10:31:06;99741.38;;;21.75;49.24
7966;BME280;4028;43.272;26.932;2024-02-28T10:33:32;99742.06;;;21.49;47.87
7966;BME280;4028;43.272;26.932;2024-02-28T10:35:59;99742.13;;;22.17;45.95
7966;BME280;4028;43.272;26.932;2024-02-28T10:38:26;99735.91;;;21.62;47.64
7966;BME280;4028;43.272;26.932;2024-02-28T10:40:53;99731.09;;;21.16;49.14
7966;BME280;4028;43.272;26.932;2024-02-28T10:43:19;99728.50;;;20.95;49.90
7966;BME280;4028;43.272;26.932;2024-02-28T10:45:44;99731.56;;;21.61;48.28
7966;BME280;4028;43.272;26.932;2024-02-28T10:48:13;99716.03;;;22.91;46.35
7966;BME280;4028;43.272;26.932;2024-02-28T10:50:39;99718.72;;;23.04;45.37
7966;BME280;4028;43.272;26.932;2024-02-28T10:53:13;99711.88;;;22.75;44.65
7966;BME280;4028;43.272;26.932;2024-02-28T10:55:40;99716.25;;;22.63;44.48
7966;BME280;4028;43.272;26.932;2024-02-28T10:58:08;99710.44;;;22.59;44.87
7966;BME280;4028;43.272;26.932;2024-02-28T11:00:36;99679.09;;;22.18;45.00
7966;BME280;4028;43.272;26.932;2024-02-28T11:03:04;99700.88;;;22.23;45.67
7966;BME280;4028;43.272;26.932;2024-02-28T11:05:41;99691.69;;;23.69;43.36
7966;BME280;4028;43.272;26.932;2024-02-28T11:08:23;99676.78;;;22.75;44.58
7966;BME280;4028;43.272;26.932;2024-02-28T11:13:27;99686.69;;;21.88;47.31
7966;BME280;4028;43.272;26.932;2024-02-28T11:15:54;99671.81;;;22.92;45.22
7966;BME280;4028;43.272;26.932;2024-02-28T11:18:47;99679.91;;;22.92;45.08
7966;BME280;4028;43.272;26.932;2024-02-28T11:21:16;99664.09;;;21.89;46.18
7966;BME280;4028;43.272;26.932;2024-02-28T11:23:46;99681.78;;;22.18;46.07
7966;BME280;4028;43.272;26.932;2024-02-28T11:26:12;99672.19;;;22.82;45.29
7966;BME280;4028;43.272;26.932;2024-02-28T11:28:38;99673.16;;;23.34;44.71
7966;BME280;4028;43.272;26.932;2024-02-28T11:31:05;99666.38;;;23.63;44.23
7966;BME280;4028;43.272;26.932;2024-02-28T11:33:30;99665.09;;;24.29;43.04
7966;BME280;4028;43.272;26.932;2024-02-28T11:35:58;99662.28;;;24.49;42.82
7966;BME280;4028;43.272;26.932;2024-02-28T11:38:27;99651.19;;;24.57;42.23
7966;BME280;4028;43.272;26.932;2024-02-28T11:40:54;99644.09;;;24.56;41.47
7966;BME280;4028;43.272;26.932;2024-02-28T11:43:21;99647.88;;;24.23;41.14
7966;BME280;4028;43.272;26.932;2024-02-28T11:45:46;99648.00;;;23.78;43.08
7966;BME280;4028;43.272;26.932;2024-02-28T11:48:15;99576.84;;;23.53;41.73
7966;BME280;4028;43.272;26.932;2024-02-28T11:50:41;99649.16;;;23.89;41.83
7966;BME280;4028;43.272;26.932;2024-02-28T11:53:07;99643.72;;;23.64;42.80
7966;BME280;4028;43.272;26.932;2024-02-28T11:55:33;99639.88;;;24.42;41.52
7966;BME280;4028;43.272;26.932;2024-02-28T11:57:58;99648.91;;;25.34;39.72
7966;BME280;4028;43.272;26.932;2024-02-28T12:00:24;99638.81;;;25.04;40.17
7966;BME280;4028;43.272;26.932;2024-02-28T12:02:49;99639.66;;;26.25;38.72
7966;BME280;4028;43.272;26.932;2024-02-28T12:05:15;99637.88;;;24.92;39.68
7966;BME280;4028;43.272;26.932;2024-02-28T12:07:41;99575.47;;;24.87;39.81
7966;BME280;4028;43.272;26.932;2024-02-28T12:10:08;99631.72;;;25.40;39.66
7966;BME280;4028;43.272;26.932;2024-02-28T12:12:34;99622.22;;;26.21;38.55
7966;BME280;4028;43.272;26.932;2024-02-28T12:15:01;99599.50;;;25.80;38.72
7966;BME280;4028;43.272;26.932;2024-02-28T12:17:29;99607.81;;;25.00;39.81
7966;BME280;4028;43.272;26.932;2024-02-28T12:19:54;99623.81;;;24.47;40.61
7966;BME280;4028;43.272;26.932;2024-02-28T12:22:20;99623.69;;;24.78;40.61
7966;BME280;4028;43.272;26.932;2024-02-28T12:24:46;99618.31;;;25.45;39.30
7966;BME280;4028;43.272;26.932;2024-02-28T12:27:11;99617.94;;;25.41;39.65
7966;BME280;4028;43.272;26.932;2024-02-28T12:29:37;99614.81;;;24.89;40.79
7966;BME280;4028;43.272;26.932;2024-02-28T12:32:03;99610.59;;;24.57;40.95
7966;BME280;4028;43.272;26.932;2024-02-28T12:34:28;99605.94;;;24.64;41.34
7966;BME280;4028;43.272;26.932;2024-02-28T12:36:54;99607.66;;;24.33;41.84
7966;BME280;4028;43.272;26.932;2024-02-28T12:39:19;99603.47;;;24.62;41.20
7966;BME280;4028;43.272;26.932;2024-02-28T12:41:45;99598.56;;;24.71;40.80
7966;BME280;4028;43.272;26.932;2024-02-28T12:44:10;99611.34;;;24.14;41.36
7966;BME280;4028;43.272;26.932;2024-02-28T12:46:36;99598.69;;;24.40;41.09
7966;BME280;4028;43.272;26.932;2024-02-28T12:49:02;99597.09;;;24.07;40.98
7966;BME280;4028;43.272;26.932;2024-02-28T12:51:46;99591.44;;;24.33;41.44
7966;BME280;4028;43.272;26.932;2024-02-28T12:54:14;99587.72;;;25.56;39.26
7966;BME280;4028;43.272;26.932;2024-02-28T12:56:40;99586.47;;;25.29;39.68
7966;BME280;4028;43.272;26.932;2024-02-28T12:59:09;99584.91;;;24.84;40.23
7966;BME280;4028;43.272;26.932;2024-02-28T13:01:34;99556.13;;;24.03;41.59
7966;BME280;4028;43.272;26.932;2024-02-28T13:04:00;99564.44;;;24.88;40.19
7966;BME280;4028;43.272;26.932;2024-02-28T13:06:26;99578.88;;;24.82;40.49
7966;BME280;4028;43.272;26.932;2024-02-28T13:08:52;99574.22;;;24.89;40.16